createdAt,value
2023-04-29T00:00:14.766Z,0.98
2023-04-29T00:01:13.777Z,0.98
2023-04-29T00:02:13.800Z,0.98
2023-04-29T00:03:13.964Z,0.98
2023-04-29T00:04:13.966Z,0.99
2023-04-29T00:05:13.988Z,0.99
2023-04-29T00:06:14.939Z,1.00
2023-04-29T00:07:13.775Z,1.01
2023-04-29T00:08:14.771Z,0.98
2023-04-29T00:09:14.767Z,0.97
2023-04-29T00:10:14.825Z,0.99
2023-04-29T00:11:14.774Z,0.98
2023-04-29T00:12:13.776Z,0.99
2023-04-29T00:13:13.761Z,0.99
2023-04-29T00:14:14.873Z,0.96
2023-04-29T00:15:14.767Z,0.98
2023-04-29T00:16:14.768Z,0.99
2023-04-29T00:17:14.227Z,0.99
2023-04-29T00:18:14.827Z,0.95
2023-04-29T00:19:15.074Z,0.99
2023-04-29T00:20:13.758Z,0.99
2023-04-29T00:21:13.778Z,0.97
2023-04-29T00:22:13.782Z,0.97
2023-04-29T00:23:13.766Z,0.98
2023-04-29T00:24:13.769Z,0.97
2023-04-29T00:25:14.806Z,0.98
2023-04-29T00:26:13.760Z,0.98
2023-04-29T00:27:14.784Z,0.97
2023-04-29T00:28:14.782Z,0.96
2023-04-29T00:29:13.765Z,0.96
2023-04-29T00:30:13.797Z,0.98
2023-04-29T00:31:14.966Z,0.97
2023-04-29T00:32:14.752Z,0.96
2023-04-29T00:33:14.764Z,0.97
2023-04-29T00:34:14.770Z,0.97
2023-04-29T00:35:13.894Z,0.97
2023-04-29T00:36:14.770Z,0.95
2023-04-29T00:37:14.818Z,0.96
2023-04-29T00:38:14.806Z,0.95
2023-04-29T00:39:15.535Z,0.95
2023-04-29T00:40:14.817Z,0.95
2023-04-29T00:41:14.768Z,0.96
2023-04-29T00:42:14.772Z,0.96
2023-04-29T00:43:14.770Z,0.94
2023-04-29T00:44:13.752Z,0.95
2023-04-29T00:45:14.765Z,0.95
2023-04-29T00:46:14.889Z,0.97
2023-04-29T00:47:14.787Z,0.95
2023-04-29T00:48:14.779Z,0.96
2023-04-29T00:49:13.759Z,0.94
2023-04-29T00:50:14.777Z,0.95
2023-04-29T00:51:14.824Z,0.94
2023-04-29T00:52:13.784Z,0.92
2023-04-29T00:53:14.807Z,0.94
2023-04-29T00:54:14.767Z,0.94
2023-04-29T00:55:14.759Z,0.93
2023-04-29T00:56:14.760Z,0.95
2023-04-29T00:57:13.775Z,0.94
2023-04-29T00:58:14.777Z,0.95
2023-04-29T00:59:14.793Z,0.94
2023-04-29T01:00:13.789Z,0.93
2023-04-29T01:01:15.148Z,0.94
2023-04-29T01:02:13.859Z,0.95
2023-04-29T01:03:14.909Z,0.95
2023-04-29T01:04:14.002Z,0.95
2023-04-29T01:05:14.860Z,0.95
2023-04-29T01:06:14.844Z,0.94
2023-04-29T01:07:13.857Z,0.96
2023-04-29T01:08:16.507Z,0.97
2023-04-29T01:09:14.853Z,0.97
2023-04-29T01:10:14.851Z,0.97
2023-04-29T01:11:13.845Z,0.96
2023-04-29T01:12:13.871Z,0.95
2023-04-29T01:13:14.822Z,0.96
2023-04-29T01:14:14.794Z,0.92
2023-04-29T01:15:14.809Z,0.97
2023-04-29T01:16:14.841Z,0.94
2023-04-29T01:17:13.803Z,0.95
2023-04-29T01:18:14.978Z,0.94
2023-04-29T01:19:13.775Z,0.94
2023-04-29T01:20:14.751Z,0.93
2023-04-29T01:21:14.780Z,0.95
2023-04-29T01:22:14.771Z,0.93
2023-04-29T01:23:13.745Z,0.94
2023-04-29T01:24:14.846Z,0.94
2023-04-29T01:25:14.715Z,0.94
2023-04-29T01:26:14.712Z,0.94
2023-04-29T01:27:13.756Z,0.93
2023-04-29T01:28:13.693Z,0.94
2023-04-29T01:29:14.788Z,0.94
2023-04-29T01:30:14.725Z,0.90
2023-04-29T01:31:14.746Z,0.93
2023-04-29T01:32:14.921Z,0.91
2023-04-29T01:33:14.668Z,0.92
2023-04-29T01:34:14.674Z,0.91
2023-04-29T01:35:14.639Z,0.92
2023-04-29T01:36:14.653Z,0.92
2023-04-29T01:37:14.627Z,0.92
2023-04-29T01:38:14.677Z,0.92
2023-04-29T01:39:14.695Z,0.91
2023-04-29T01:40:14.604Z,0.92
2023-04-29T01:41:14.606Z,0.92
2023-04-29T01:42:14.867Z,0.93
2023-04-29T01:43:13.639Z,0.92
2023-04-29T01:44:13.578Z,0.92
2023-04-29T01:45:14.620Z,0.91
2023-04-29T01:46:13.679Z,0.90
2023-04-29T01:47:13.566Z,0.90
2023-04-29T01:48:14.600Z,0.93
2023-04-29T01:49:13.537Z,0.92
2023-04-29T01:50:14.566Z,0.91
2023-04-29T01:51:13.564Z,0.92
2023-04-29T01:52:14.529Z,0.93
2023-04-29T01:53:14.528Z,0.93
2023-04-29T01:54:14.559Z,0.93
2023-04-29T01:55:14.503Z,0.92
2023-04-29T01:56:14.485Z,0.91
2023-04-29T01:57:13.479Z,0.93
2023-04-29T01:58:14.493Z,0.92
2023-04-29T01:59:14.535Z,0.93
2023-04-29T02:00:13.471Z,0.91
2023-04-29T02:01:13.516Z,0.92
2023-04-29T02:02:13.455Z,0.91
2023-04-29T02:03:14.488Z,0.91
2023-04-29T02:04:14.486Z,0.91
2023-04-29T02:05:14.426Z,0.91
2023-04-29T02:06:14.447Z,0.92
2023-04-29T02:07:13.414Z,0.93
2023-04-29T02:08:14.434Z,0.92
2023-04-29T02:09:14.402Z,0.90
2023-04-29T02:10:14.402Z,0.90
2023-04-29T02:11:14.386Z,0.92
2023-04-29T02:12:14.386Z,0.91
2023-04-29T02:13:13.401Z,0.92
2023-04-29T02:14:13.410Z,0.91
2023-04-29T02:15:14.417Z,0.90
2023-04-29T02:16:14.474Z,0.91
2023-04-29T02:17:14.441Z,0.92
2023-04-29T02:18:13.464Z,0.91
2023-04-29T02:19:14.473Z,0.91
2023-04-29T02:20:13.492Z,0.90
2023-04-29T02:21:13.498Z,0.91
2023-04-29T02:22:14.519Z,0.90
2023-04-29T02:23:14.504Z,0.91
2023-04-29T02:24:13.512Z,0.89
2023-04-29T02:25:14.545Z,0.90
2023-04-29T02:26:14.556Z,0.90
2023-04-29T02:27:13.669Z,0.91
2023-04-29T02:28:14.587Z,0.91
2023-04-29T02:29:14.596Z,0.90
2023-04-29T02:30:13.615Z,0.90
2023-04-29T02:31:13.608Z,0.89
2023-04-29T02:32:14.669Z,0.89
2023-04-29T02:33:13.705Z,0.88
2023-04-29T02:34:14.671Z,0.91
2023-04-29T02:35:14.737Z,0.91
2023-04-29T02:36:14.736Z,0.89
2023-04-29T02:37:14.721Z,0.90
2023-04-29T02:38:14.762Z,0.90
2023-04-29T02:39:13.733Z,0.89
2023-04-29T02:40:14.753Z,0.90
2023-04-29T02:41:14.765Z,0.89
2023-04-29T02:42:13.792Z,0.91
2023-04-29T02:43:14.828Z,0.93
2023-04-29T02:44:14.798Z,0.91
2023-04-29T02:45:14.801Z,0.89
2023-04-29T02:46:14.845Z,0.89
2023-04-29T02:47:13.815Z,0.89
2023-04-29T02:48:13.852Z,0.90
2023-04-29T02:49:14.850Z,0.88
2023-04-29T02:50:13.873Z,0.89
2023-04-29T02:51:13.896Z,0.89
2023-04-29T02:52:13.908Z,0.89
2023-04-29T02:53:14.893Z,0.88
2023-04-29T02:54:14.933Z,0.88
2023-04-29T02:55:14.903Z,0.88
2023-04-29T02:56:14.950Z,0.89
2023-04-29T02:57:14.957Z,0.88
2023-04-29T02:58:13.966Z,0.89
2023-04-29T02:59:14.999Z,0.89
2023-04-29T03:00:14.008Z,0.88
2023-04-29T03:01:15.033Z,0.90
2023-04-29T03:02:15.053Z,0.91
2023-04-29T03:03:14.290Z,0.88
2023-04-29T03:04:15.245Z,0.89
2023-04-29T03:05:14.094Z,0.89
2023-04-29T03:06:15.091Z,0.87
2023-04-29T03:07:15.179Z,0.87
2023-04-29T03:08:14.119Z,0.86
2023-04-29T03:09:15.178Z,0.87
2023-04-29T03:10:15.190Z,0.89
2023-04-29T03:11:15.170Z,0.87
2023-04-29T03:12:15.201Z,0.87
2023-04-29T03:13:14.203Z,0.87
2023-04-29T03:14:15.232Z,0.87
2023-04-29T03:15:14.260Z,0.88
2023-04-29T03:16:14.300Z,0.87
2023-04-29T03:17:14.282Z,0.87
2023-04-29T03:18:15.305Z,0.88
2023-04-29T03:19:14.323Z,0.86
2023-04-29T03:20:15.347Z,0.87
2023-04-29T03:21:15.360Z,0.85
2023-04-29T03:22:15.389Z,0.87
2023-04-29T03:23:15.403Z,0.87
2023-04-29T03:24:14.428Z,0.88
2023-04-29T03:25:14.452Z,0.88
2023-04-29T03:26:15.577Z,0.89
2023-04-29T03:27:14.477Z,0.88
2023-04-29T03:28:15.502Z,0.88
2023-04-29T03:29:15.552Z,0.86
2023-04-29T03:30:15.547Z,0.87
2023-04-29T03:31:14.596Z,0.86
2023-04-29T03:32:15.585Z,0.87
2023-04-29T03:33:15.630Z,0.86
2023-04-29T03:34:14.641Z,0.85
2023-04-29T03:35:16.147Z,0.87
2023-04-29T03:36:15.669Z,0.84
2023-04-29T03:37:15.685Z,0.87
2023-04-29T03:38:15.709Z,0.86
2023-04-29T03:39:15.773Z,0.87
2023-04-29T03:40:14.761Z,0.87
2023-04-29T03:41:14.786Z,0.86
2023-04-29T03:42:15.852Z,0.87
2023-04-29T03:43:15.838Z,0.88
2023-04-29T03:44:15.881Z,0.88
2023-04-29T03:45:14.873Z,0.87
2023-04-29T03:46:15.955Z,0.88
2023-04-29T03:47:14.933Z,0.86
2023-04-29T03:48:15.952Z,0.87
2023-04-29T03:49:14.996Z,0.87
2023-04-29T03:50:16.025Z,0.87
2023-04-29T03:51:16.050Z,0.85
2023-04-29T03:52:16.063Z,0.85
2023-04-29T03:53:16.087Z,0.87
2023-04-29T03:54:16.106Z,0.87
2023-04-29T03:55:16.129Z,0.87
2023-04-29T03:56:17.405Z,0.86
2023-04-29T03:57:16.173Z,0.86
2023-04-29T03:58:16.221Z,0.86
2023-04-29T03:59:16.236Z,0.86
2023-04-29T04:00:16.245Z,0.86
2023-04-29T04:01:15.301Z,0.86
2023-04-29T04:02:16.336Z,0.87
2023-04-29T04:03:15.415Z,0.85
2023-04-29T04:04:15.545Z,0.86
2023-04-29T04:05:15.418Z,0.86
2023-04-29T04:06:15.394Z,0.85
2023-04-29T04:07:15.424Z,0.84
2023-04-29T04:08:16.419Z,0.85
2023-04-29T04:09:16.469Z,0.87
2023-04-29T04:10:16.494Z,0.85
2023-04-29T04:11:16.515Z,0.86
2023-04-29T04:12:15.527Z,0.85
2023-04-29T04:13:15.557Z,0.87
2023-04-29T04:14:16.630Z,0.83
2023-04-29T04:15:16.600Z,0.85
2023-04-29T04:16:16.734Z,0.85
2023-04-29T04:17:15.637Z,0.84
2023-04-29T04:18:15.699Z,0.86
2023-04-29T04:19:15.716Z,0.85
2023-04-29T04:20:16.813Z,0.84
2023-04-29T04:21:16.932Z,0.83
2023-04-29T04:22:16.765Z,0.85
2023-04-29T04:23:15.795Z,0.85
2023-04-29T04:24:16.898Z,0.85
2023-04-29T04:25:15.874Z,0.85
2023-04-29T04:26:16.890Z,0.83
2023-04-29T04:27:16.938Z,0.84
2023-04-29T04:28:16.908Z,0.84
2023-04-29T04:29:16.946Z,0.83
2023-04-29T04:30:16.048Z,0.84
2023-04-29T04:31:17.090Z,0.83
2023-04-29T04:32:15.986Z,0.84
2023-04-29T04:33:16.041Z,0.84
2023-04-29T04:34:16.079Z,0.83
2023-04-29T04:35:17.086Z,0.84
2023-04-29T04:36:16.083Z,0.82
2023-04-29T04:37:16.131Z,0.83
2023-04-29T04:38:17.147Z,0.82
2023-04-29T04:39:16.169Z,0.84
2023-04-29T04:40:16.253Z,0.84
2023-04-29T04:41:17.200Z,0.83
2023-04-29T04:42:17.249Z,0.86
2023-04-29T04:43:17.299Z,0.84
2023-04-29T04:44:17.292Z,0.84
2023-04-29T04:45:17.329Z,0.84
2023-04-29T04:46:17.535Z,0.83
2023-04-29T04:47:16.368Z,0.84
2023-04-29T04:48:17.392Z,0.83
2023-04-29T04:49:16.419Z,0.82
2023-04-29T04:50:17.449Z,0.83
2023-04-29T04:51:16.462Z,0.82
2023-04-29T04:52:17.474Z,0.82
2023-04-29T04:53:17.518Z,0.84
2023-04-29T04:54:17.523Z,0.82
2023-04-29T04:55:17.553Z,0.82
2023-04-29T04:56:16.688Z,0.83
2023-04-29T04:57:17.614Z,0.81
2023-04-29T04:58:17.627Z,0.82
2023-04-29T04:59:17.641Z,0.84
2023-04-29T05:00:17.660Z,0.81
2023-04-29T05:01:16.675Z,0.81
2023-04-29T05:02:16.746Z,0.83
2023-04-29T05:03:18.055Z,0.82
2023-04-29T05:04:16.905Z,0.81
2023-04-29T05:05:16.868Z,0.81
2023-04-29T05:06:17.812Z,0.82
2023-04-29T05:07:17.850Z,0.81
2023-04-29T05:08:17.860Z,0.82
2023-04-29T05:09:17.902Z,0.82
2023-04-29T05:10:17.902Z,0.82
2023-04-29T05:11:17.925Z,0.82
2023-04-29T05:12:17.044Z,0.82
2023-04-29T05:13:18.348Z,0.83
2023-04-29T05:14:18.238Z,0.84
2023-04-29T05:15:17.114Z,0.83
2023-04-29T05:16:18.253Z,0.83
2023-04-29T05:17:18.286Z,0.82
2023-04-29T05:18:18.092Z,0.83
2023-04-29T05:19:18.107Z,0.83
2023-04-29T05:20:18.160Z,0.82
2023-04-29T05:21:17.858Z,0.83
2023-04-29T05:22:18.196Z,0.84
2023-04-29T05:23:17.226Z,0.81
2023-04-29T05:24:18.250Z,0.82
2023-04-29T05:25:18.265Z,0.82
2023-04-29T05:26:17.297Z,0.83
2023-04-29T05:27:18.324Z,0.80
2023-04-29T05:28:17.359Z,0.81
2023-04-29T05:29:18.351Z,0.82
2023-04-29T05:30:18.435Z,0.82
2023-04-29T05:31:18.455Z,0.80
2023-04-29T05:32:17.452Z,0.82
2023-04-29T05:33:18.525Z,0.82
2023-04-29T05:34:19.011Z,0.80
2023-04-29T05:35:18.520Z,0.83
2023-04-29T05:36:17.514Z,0.81
2023-04-29T05:37:17.530Z,0.78
2023-04-29T05:38:18.572Z,0.81
2023-04-29T05:39:18.602Z,0.81
2023-04-29T05:40:18.607Z,0.81
2023-04-29T05:41:18.719Z,0.81
2023-04-29T05:42:18.768Z,0.81
2023-04-29T05:43:18.702Z,0.82
2023-04-29T05:44:17.713Z,0.82
2023-04-29T05:45:18.754Z,0.81
2023-04-29T05:46:18.797Z,0.80
2023-04-29T05:47:17.795Z,0.79
2023-04-29T05:48:18.794Z,0.80
2023-04-29T05:49:17.849Z,0.82
2023-04-29T05:50:18.863Z,0.81
2023-04-29T05:51:17.869Z,0.81
2023-04-29T05:52:18.886Z,0.82
2023-04-29T05:53:18.911Z,0.80
2023-04-29T05:54:18.921Z,0.81
2023-04-29T05:55:18.952Z,0.81
2023-04-29T05:56:17.996Z,0.80
2023-04-29T05:57:18.000Z,0.82
2023-04-29T05:58:19.058Z,0.80
2023-04-29T05:59:19.045Z,0.82
2023-04-29T06:00:18.148Z,0.82
2023-04-29T06:01:18.176Z,0.82
2023-04-29T06:02:19.284Z,0.82
2023-04-29T06:03:19.072Z,0.82
2023-04-29T06:04:18.411Z,0.80
2023-04-29T06:05:19.150Z,0.81
2023-04-29T06:06:18.285Z,0.82
2023-04-29T06:07:20.297Z,0.79
2023-04-29T06:08:19.254Z,0.82
2023-04-29T06:09:27.035Z,0.81
2023-04-29T06:10:19.441Z,0.81
2023-04-29T06:11:19.289Z,0.81
2023-04-29T06:12:19.256Z,0.81
2023-04-29T06:13:18.249Z,0.82
2023-04-29T06:14:19.237Z,0.84
2023-04-29T06:15:19.250Z,0.82
2023-04-29T06:16:19.274Z,0.81
2023-04-29T06:17:18.413Z,0.81
2023-04-29T06:18:19.423Z,0.82
2023-04-29T06:19:20.031Z,0.82
2023-04-29T06:20:19.205Z,0.83
2023-04-29T06:21:18.258Z,0.82
2023-04-29T06:22:18.232Z,0.82
2023-04-29T06:23:19.194Z,0.81
2023-04-29T06:24:18.190Z,0.82
2023-04-29T06:25:18.195Z,0.83
2023-04-29T06:26:19.214Z,0.83
2023-04-29T06:27:19.486Z,0.82
2023-04-29T06:28:19.144Z,0.82
2023-04-29T06:29:19.141Z,0.84
2023-04-29T06:30:19.205Z,0.81
2023-04-29T06:31:20.185Z,0.82
2023-04-29T06:32:19.129Z,0.82
2023-04-29T06:33:19.106Z,0.84
2023-04-29T06:34:19.111Z,0.82
2023-04-29T06:35:19.130Z,0.83
2023-04-29T06:36:18.115Z,0.84
2023-04-29T06:37:19.120Z,0.83
2023-04-29T06:38:18.090Z,0.83
2023-04-29T06:39:19.069Z,0.82
2023-04-29T06:40:19.085Z,0.81
2023-04-29T06:41:19.073Z,0.82
2023-04-29T06:42:19.078Z,0.82
2023-04-29T06:43:19.052Z,0.81
2023-04-29T06:44:19.034Z,0.83
2023-04-29T06:45:19.040Z,0.83
2023-04-29T06:46:19.080Z,0.82
2023-04-29T06:47:19.007Z,0.82
2023-04-29T06:48:19.006Z,0.81
2023-04-29T06:49:19.005Z,0.83
2023-04-29T06:50:19.004Z,0.82
2023-04-29T06:51:18.985Z,0.83
2023-04-29T06:52:19.032Z,0.83
2023-04-29T06:53:17.988Z,0.83
2023-04-29T06:54:18.979Z,0.83
2023-04-29T06:55:17.993Z,0.86
2023-04-29T06:56:18.949Z,0.84
2023-04-29T06:57:18.952Z,0.85
2023-04-29T06:58:18.944Z,0.85
2023-04-29T06:59:18.941Z,0.85
2023-04-29T07:00:18.933Z,0.85
2023-04-29T07:01:17.972Z,0.87
2023-04-29T07:02:18.981Z,0.88
2023-04-29T07:03:18.162Z,0.88
2023-04-29T07:04:17.950Z,0.88
2023-04-29T07:05:18.879Z,0.85
2023-04-29T07:06:19.411Z,0.86
2023-04-29T07:07:17.899Z,0.90
2023-04-29T07:08:18.858Z,0.89
2023-04-29T07:09:17.900Z,0.90
2023-04-29T07:10:18.846Z,0.90
2023-04-29T07:11:18.846Z,0.91
2023-04-29T07:12:18.837Z,0.92
2023-04-29T07:13:18.825Z,0.92
2023-04-29T07:14:17.820Z,0.93
2023-04-29T07:15:18.839Z,0.93
2023-04-29T07:16:18.829Z,0.93
2023-04-29T07:17:17.826Z,0.92
2023-04-29T07:18:18.907Z,0.93
2023-04-29T07:19:18.812Z,0.93
2023-04-29T07:20:20.110Z,0.93
2023-04-29T07:21:17.783Z,0.96
2023-04-29T07:22:17.771Z,0.94
2023-04-29T07:23:17.774Z,0.95
2023-04-29T07:24:18.778Z,0.94
2023-04-29T07:25:18.789Z,0.96
2023-04-29T07:26:17.793Z,0.94
2023-04-29T07:27:18.755Z,0.96
2023-04-29T07:28:17.734Z,0.96
2023-04-29T07:29:17.722Z,0.93
2023-04-29T07:30:18.746Z,0.95
2023-04-29T07:31:18.767Z,0.95
2023-04-29T07:32:18.720Z,0.97
2023-04-29T07:33:17.705Z,0.96
2023-04-29T07:34:18.703Z,0.96
2023-04-29T07:35:17.693Z,0.96
2023-04-29T07:36:18.691Z,0.97
2023-04-29T07:37:18.677Z,0.94
2023-04-29T07:38:18.678Z,0.96
2023-04-29T07:39:18.680Z,0.96
2023-04-29T07:40:18.652Z,0.97
2023-04-29T07:41:17.667Z,0.95
2023-04-29T07:42:17.647Z,0.96
2023-04-29T07:43:18.624Z,0.94
2023-04-29T07:44:17.628Z,0.96
2023-04-29T07:45:17.639Z,0.96
2023-04-29T07:46:18.672Z,0.93
2023-04-29T07:47:18.616Z,0.95
2023-04-29T07:48:17.616Z,0.93
2023-04-29T07:49:18.585Z,0.93
2023-04-29T07:50:17.582Z,0.92
2023-04-29T07:51:18.591Z,0.91
2023-04-29T07:52:18.568Z,0.91
2023-04-29T07:53:17.563Z,0.93
2023-04-29T07:54:17.555Z,0.91
2023-04-29T07:55:18.569Z,0.91
2023-04-29T07:56:18.542Z,0.92
2023-04-29T07:57:18.566Z,0.92
2023-04-29T07:58:18.528Z,0.90
2023-04-29T07:59:18.561Z,0.89
2023-04-29T08:00:17.516Z,0.90
2023-04-29T08:01:17.502Z,0.92
2023-04-29T08:02:18.576Z,0.90
2023-04-29T08:03:17.627Z,0.91
2023-04-29T08:04:17.692Z,0.91
2023-04-29T08:05:18.735Z,0.91
2023-04-29T08:06:17.511Z,0.89
2023-04-29T08:07:17.468Z,0.91
2023-04-29T08:08:17.462Z,0.90
2023-04-29T08:09:17.453Z,0.91
2023-04-29T08:10:18.445Z,0.89
2023-04-29T08:11:18.424Z,0.90
2023-04-29T08:12:18.423Z,0.90
2023-04-29T08:13:18.458Z,0.90
2023-04-29T08:14:18.440Z,0.90
2023-04-29T08:15:18.416Z,0.93
2023-04-29T08:16:18.423Z,0.92
2023-04-29T08:17:17.404Z,0.89
2023-04-29T08:18:17.383Z,0.90
2023-04-29T08:19:18.382Z,0.90
2023-04-29T08:20:18.406Z,0.91
2023-04-29T08:21:18.366Z,0.89
2023-04-29T08:22:18.368Z,0.92
2023-04-29T08:23:18.372Z,0.91
2023-04-29T08:24:18.329Z,0.91
2023-04-29T08:25:18.321Z,0.90
2023-04-29T08:26:18.381Z,0.91
2023-04-29T08:27:17.466Z,0.91
2023-04-29T08:28:18.502Z,0.89
2023-04-29T08:29:18.584Z,0.91
2023-04-29T08:30:17.609Z,0.90
2023-04-29T08:31:18.721Z,0.90
2023-04-29T08:32:17.716Z,0.88
2023-04-29T08:33:18.775Z,0.88
2023-04-29T08:34:18.832Z,0.89
2023-04-29T08:35:17.903Z,0.91
2023-04-29T08:36:18.961Z,0.91
2023-04-29T08:37:19.028Z,0.89
2023-04-29T08:38:19.077Z,0.90
2023-04-29T08:39:19.136Z,0.89
2023-04-29T08:40:18.187Z,0.90
2023-04-29T08:41:18.263Z,0.88
2023-04-29T08:42:19.591Z,0.88
2023-04-29T08:43:18.387Z,0.88
2023-04-29T08:44:19.454Z,0.88
2023-04-29T08:45:19.548Z,0.87
2023-04-29T08:46:18.743Z,0.88
2023-04-29T08:47:19.728Z,0.87
2023-04-29T08:48:19.768Z,0.88
2023-04-29T08:49:18.809Z,0.87
2023-04-29T08:50:19.825Z,0.87
2023-04-29T08:51:18.879Z,0.87
2023-04-29T08:52:19.955Z,0.87
2023-04-29T08:53:20.017Z,0.86
2023-04-29T08:54:19.075Z,0.86
2023-04-29T08:55:20.134Z,0.86
2023-04-29T08:56:19.187Z,0.86
2023-04-29T08:57:19.249Z,0.86
2023-04-29T08:58:19.297Z,0.86
2023-04-29T08:59:20.348Z,0.86
2023-04-29T09:00:20.481Z,0.85
2023-04-29T09:01:20.548Z,0.85
2023-04-29T09:02:19.666Z,0.86
2023-04-29T09:03:22.071Z,0.84
2023-04-29T09:04:19.805Z,0.85
2023-04-29T09:05:20.851Z,0.86
2023-04-29T09:06:20.931Z,0.84
2023-04-29T09:07:20.967Z,0.85
2023-04-29T09:08:21.026Z,0.85
2023-04-29T09:09:21.253Z,0.84
2023-04-29T09:10:20.197Z,0.83
2023-04-29T09:11:21.208Z,0.84
2023-04-29T09:12:21.285Z,0.84
2023-04-29T09:13:21.329Z,0.84
2023-04-29T09:14:21.399Z,0.83
2023-04-29T09:15:21.468Z,0.85
2023-04-29T09:16:21.608Z,0.82
2023-04-29T09:17:21.615Z,0.84
2023-04-29T09:18:20.641Z,0.83
2023-04-29T09:19:21.699Z,0.83
2023-04-29T09:20:22.044Z,0.83
2023-04-29T09:21:22.406Z,0.82
2023-04-29T09:22:20.929Z,0.81
2023-04-29T09:23:20.947Z,0.83
2023-04-29T09:24:22.027Z,0.81
2023-04-29T09:25:21.096Z,0.81
2023-04-29T09:26:22.231Z,0.82
2023-04-29T09:27:22.227Z,0.80
2023-04-29T09:28:22.283Z,0.83
2023-04-29T09:29:21.316Z,0.80
2023-04-29T09:30:22.367Z,0.81
2023-04-29T09:31:21.426Z,0.82
2023-04-29T09:32:22.502Z,0.81
2023-04-29T09:33:22.652Z,0.82
2023-04-29T09:34:22.578Z,0.80
2023-04-29T09:35:22.644Z,0.80
2023-04-29T09:36:21.673Z,0.81
2023-04-29T09:37:22.765Z,0.81
2023-04-29T09:38:22.783Z,0.79
2023-04-29T09:39:22.830Z,0.80
2023-04-29T09:40:22.878Z,0.78
2023-04-29T09:41:22.931Z,0.78
2023-04-29T09:42:22.989Z,0.80
2023-04-29T09:43:23.013Z,0.80
2023-04-29T09:44:23.125Z,0.78
2023-04-29T09:45:22.095Z,0.78
2023-04-29T09:46:23.215Z,0.78
2023-04-29T09:47:22.223Z,0.78
2023-04-29T09:48:23.250Z,0.77
2023-04-29T09:49:22.318Z,0.79
2023-04-29T09:50:22.335Z,0.79
2023-04-29T09:51:23.375Z,0.79
2023-04-29T09:52:23.414Z,0.76
2023-04-29T09:53:23.798Z,0.77
2023-04-29T09:54:23.519Z,0.78
2023-04-29T09:55:23.697Z,0.77
2023-04-29T09:56:22.578Z,0.77
2023-04-29T09:57:23.631Z,0.76
2023-04-29T09:58:22.688Z,0.77
2023-04-29T09:59:23.710Z,0.74
2023-04-29T10:00:23.747Z,0.75
2023-04-29T10:01:23.793Z,0.75
2023-04-29T10:02:22.834Z,0.75
2023-04-29T10:03:23.952Z,0.73
2023-04-29T10:04:23.883Z,0.75
2023-04-29T10:05:23.923Z,0.74
2023-04-29T10:06:23.927Z,0.75
2023-04-29T10:07:23.947Z,0.74
2023-04-29T10:08:23.971Z,0.71
2023-04-29T10:09:22.983Z,0.74
2023-04-29T10:10:24.015Z,0.73
2023-04-29T10:11:23.041Z,0.73
2023-04-29T10:12:24.076Z,0.72
2023-04-29T10:13:24.105Z,0.74
2023-04-29T10:14:23.127Z,0.73
2023-04-29T10:15:24.138Z,0.72
2023-04-29T10:16:23.324Z,0.70
2023-04-29T10:17:23.179Z,0.72
2023-04-29T10:18:23.270Z,0.72
2023-04-29T10:19:24.234Z,0.72
2023-04-29T10:20:24.275Z,0.73
2023-04-29T10:21:23.319Z,0.73
2023-04-29T10:22:23.324Z,0.70
2023-04-29T10:23:23.362Z,0.71
2023-04-29T10:24:23.365Z,0.72
2023-04-29T10:25:24.437Z,0.72
2023-04-29T10:26:24.407Z,0.71
2023-04-29T10:27:25.235Z,0.72
2023-04-29T10:28:24.457Z,0.73
2023-04-29T10:29:24.482Z,0.70
2023-04-29T10:30:24.516Z,0.72
2023-04-29T10:31:24.531Z,0.72
2023-04-29T10:32:23.549Z,0.73
2023-04-29T10:33:23.595Z,0.72
2023-04-29T10:34:23.622Z,0.73
2023-04-29T10:35:23.916Z,0.71
2023-04-29T10:36:23.676Z,0.72
2023-04-29T10:37:23.738Z,0.72
2023-04-29T10:38:24.662Z,0.72
2023-04-29T10:39:24.674Z,0.71
2023-04-29T10:40:23.698Z,0.72
2023-04-29T10:41:24.736Z,0.72
2023-04-29T10:42:23.722Z,0.72
2023-04-29T10:43:23.742Z,0.73
2023-04-29T10:44:23.752Z,0.73
2023-04-29T10:45:23.796Z,0.71
2023-04-29T10:46:24.859Z,0.70
2023-04-29T10:47:23.852Z,0.70
2023-04-29T10:48:24.850Z,0.71
2023-04-29T10:49:25.594Z,0.72
2023-04-29T10:50:23.883Z,0.72
2023-04-29T10:51:24.894Z,0.71
2023-04-29T10:52:23.917Z,0.70
2023-04-29T10:53:24.967Z,0.70
2023-04-29T10:54:25.008Z,0.70
2023-04-29T10:55:23.988Z,0.70
2023-04-29T10:56:25.016Z,0.71
2023-04-29T10:57:24.038Z,0.72
2023-04-29T10:58:25.043Z,0.70
2023-04-29T10:59:25.057Z,0.71
2023-04-29T11:00:25.098Z,0.71
2023-04-29T11:01:24.168Z,0.71
2023-04-29T11:02:24.204Z,0.71
2023-04-29T11:03:25.284Z,0.72
2023-04-29T11:04:24.201Z,0.68
2023-04-29T11:05:27.748Z,0.71
2023-04-29T11:06:25.230Z,0.73
2023-04-29T11:07:24.166Z,0.72
2023-04-29T11:08:25.168Z,0.72
2023-04-29T11:09:25.168Z,0.70
2023-04-29T11:10:24.143Z,0.70
2023-04-29T11:11:24.632Z,0.70
2023-04-29T11:12:24.138Z,0.71
2023-04-29T11:13:24.124Z,0.70
2023-04-29T11:14:25.118Z,0.71
2023-04-29T11:15:24.129Z,0.70
2023-04-29T11:16:24.189Z,0.71
2023-04-29T11:17:27.159Z,0.71
2023-04-29T11:18:25.117Z,0.71
2023-04-29T11:19:24.089Z,0.71
2023-04-29T11:20:25.071Z,0.70
2023-04-29T11:21:25.095Z,0.69
2023-04-29T11:22:25.085Z,0.69
2023-04-29T11:23:24.485Z,0.69
2023-04-29T11:24:25.068Z,0.70
2023-04-29T11:25:25.086Z,0.69
2023-04-29T11:26:25.032Z,0.68
2023-04-29T11:27:24.030Z,0.69
2023-04-29T11:28:25.052Z,0.70
2023-04-29T11:29:25.047Z,0.70
2023-04-29T11:30:24.030Z,0.69
2023-04-29T11:31:26.319Z,0.67
2023-04-29T11:32:25.081Z,0.67
2023-04-29T11:33:25.040Z,0.68
2023-04-29T11:34:24.998Z,0.68
2023-04-29T11:35:24.975Z,0.69
2023-04-29T11:36:23.989Z,0.70
2023-04-29T11:37:25.006Z,0.69
2023-04-29T11:38:23.989Z,0.69
2023-04-29T11:39:24.945Z,0.70
2023-04-29T11:40:24.938Z,0.69
2023-04-29T11:41:24.959Z,0.68
2023-04-29T11:42:23.934Z,0.68
2023-04-29T11:43:23.917Z,0.71
2023-04-29T11:44:24.953Z,0.69
2023-04-29T11:45:24.900Z,0.69
2023-04-29T11:46:24.918Z,0.69
2023-04-29T11:47:24.921Z,0.68
2023-04-29T11:48:24.871Z,0.69
2023-04-29T11:49:24.882Z,0.69
2023-04-29T11:50:23.858Z,0.68
2023-04-29T11:51:24.871Z,0.69
2023-04-29T11:52:23.857Z,0.70
2023-04-29T11:53:23.826Z,0.69
2023-04-29T11:54:24.825Z,0.67
2023-04-29T11:55:23.830Z,0.70
2023-04-29T11:56:24.833Z,0.70
2023-04-29T11:57:24.857Z,0.69
2023-04-29T11:58:24.831Z,0.70
2023-04-29T11:59:24.816Z,0.70
2023-04-29T12:00:24.797Z,0.69
2023-04-29T12:01:24.776Z,0.68
2023-04-29T12:02:24.869Z,0.69
2023-04-29T12:03:23.991Z,0.69
2023-04-29T12:04:23.952Z,0.70
2023-04-29T12:05:24.916Z,0.69
2023-04-29T12:06:23.757Z,0.69
2023-04-29T12:07:24.756Z,0.68
2023-04-29T12:08:24.752Z,0.69
2023-04-29T12:09:24.741Z,0.69
2023-04-29T12:10:23.733Z,0.69
2023-04-29T12:11:24.734Z,0.69
2023-04-29T12:12:23.722Z,0.69
2023-04-29T12:13:24.740Z,0.68
2023-04-29T12:14:24.727Z,0.70
2023-04-29T12:15:24.701Z,0.70
2023-04-29T12:16:24.696Z,0.68
2023-04-29T12:17:23.747Z,0.68
2023-04-29T12:18:24.677Z,0.69
2023-04-29T12:19:24.671Z,0.66
2023-04-29T12:20:23.647Z,0.69
2023-04-29T12:21:23.635Z,0.68
2023-04-29T12:22:24.646Z,0.68
2023-04-29T12:23:24.648Z,0.69
2023-04-29T12:24:24.622Z,0.68
2023-04-29T12:25:23.623Z,0.70
2023-04-29T12:26:24.613Z,0.70
2023-04-29T12:27:23.610Z,0.68
2023-04-29T12:28:23.589Z,0.69
2023-04-29T12:29:24.612Z,0.69
2023-04-29T12:30:23.603Z,0.70
2023-04-29T12:31:24.613Z,0.68
2023-04-29T12:32:23.610Z,0.70
2023-04-29T12:33:24.593Z,0.69
2023-04-29T12:34:24.557Z,0.69
2023-04-29T12:35:23.568Z,0.69
2023-04-29T12:36:23.535Z,0.68
2023-04-29T12:37:24.533Z,0.70
2023-04-29T12:38:23.557Z,0.70
2023-04-29T12:39:24.521Z,0.69
2023-04-29T12:40:24.491Z,0.70
2023-04-29T12:41:24.508Z,0.70
2023-04-29T12:42:24.495Z,0.69
2023-04-29T12:43:24.576Z,0.70
2023-04-29T12:44:23.572Z,0.68
2023-04-29T12:45:23.566Z,0.70
2023-04-29T12:46:24.580Z,0.69
2023-04-29T12:47:24.600Z,0.70
2023-04-29T12:48:30.004Z,0.69
2023-04-29T12:49:24.605Z,0.69
2023-04-29T12:50:23.585Z,0.69
2023-04-29T12:51:23.565Z,0.70
2023-04-29T12:52:24.556Z,0.71
2023-04-29T12:53:24.561Z,0.71
2023-04-29T12:54:24.597Z,0.71
2023-04-29T12:55:23.537Z,0.70
2023-04-29T12:56:23.545Z,0.70
2023-04-29T12:57:24.521Z,0.69
2023-04-29T12:58:24.512Z,0.69
2023-04-29T12:59:24.533Z,0.70
2023-04-29T13:00:23.501Z,0.70
2023-04-29T13:01:23.924Z,0.69
2023-04-29T13:02:24.555Z,0.70
2023-04-29T13:03:23.694Z,0.70
2023-04-29T13:04:23.593Z,0.70
2023-04-29T13:05:24.486Z,0.70
2023-04-29T13:06:23.462Z,0.70
2023-04-29T13:07:24.468Z,0.69
2023-04-29T13:08:23.436Z,0.69
2023-04-29T13:09:24.427Z,0.71
2023-04-29T13:10:24.434Z,0.69
2023-04-29T13:11:24.704Z,0.70
2023-04-29T13:12:23.411Z,0.70
2023-04-29T13:13:24.387Z,0.70
2023-04-29T13:14:24.400Z,0.70
2023-04-29T13:15:24.384Z,0.69
2023-04-29T13:16:24.378Z,0.70
2023-04-29T13:17:24.443Z,0.70
2023-04-29T13:18:23.349Z,0.70